KAKR/AKR METAR and TAF weather

Enter ICAO airport designator
Station Type Date Time Source
KAKR METAR 2018/01/19 22:54 UTC NOAA

KAKR 192254Z AUTO 21011KT 10SM CLR 02/M07 A2995 RMK AO2 SLP153 T00221072


Station Type Date Time Source
KAKR Decoded METAR 2018/01/19 22:54 UTC NOAA

AKRON FULTON INTERNATIONAL, OH, United States (KAKR) 41-02N 081-28W 363M
Jan 19, 2018 - 05:54 PM EST / 2018.01.19 2254 UTC
Wind: from the SSW (210 degrees) at 13 MPH (11 KT):0
Visibility: 10 mile(s):0
Sky conditions: clear
Temperature: 36.0 F (2.2 C)
Dew Point: 19.0 F (-7.2 C)
Relative Humidity: 49%
Pressure (altimeter): 29.95 in. Hg (1014 hPa)
ob: KAKR 192254Z AUTO 21011KT 10SM CLR 02/M07 A2995 RMK AO2 SLP153 T00221072
cycle: 23

Station Type Date Time Source
KAKR TAF UTC NOAA

Error!


Example: see airport list